Saint George, UT

11:32 PM MST on March 05, 2015 (GMT -0700)
River Road 900 S 1186 E | Change Station
CLOSE
Current Station
Personal Weather Station
Location: St. George, UT
Elevation: 2615 ft
Nearby Weather Stations

Elev 2615 ft 37.09 °N, 113.56 °W | Updated 19 seconds ago

Clear
Clear
42.3 °F
Feels Like 28 °F
N
57.3
Wind Variable Wind from ENE
Gusts 57.3 mph

Today
High -- | Low -- °F
--% Chance of Precip.
Yesterday
High -- | Low -- °F
Precip. -- in
6:59 AM 6:32 PM
Full, 100% visible
Pressure 30.38 in
Visibility 10.0 miles
Clouds Clear
Windchill 28 °F
Dew Point 34 °F
Humidity 71%
Rainfall in
Snow Depth Not available.
UV 0 out of 12
Pollen 4.70 out of 12
Air Quality Not available.
Flu Activity Not available.
METAR KSGU 060615Z AUTO 04004KT 10SM CLR 07/M03 A3038 RMK AO1

More Conditions Fewer Conditions

Pressure 30.38 in
Visibility 10.0 miles
Clouds Clear
Windchill 28 °F
Dew Point 34 °F
Humidity 71%
Rainfall in
Snow Depth Not available.
UV 0 out of 12
Pollen 4.70 out of 12
Air Quality Not available.
Flu Activity Not available.
METAR KSGU 060615Z AUTO 04004KT 10SM CLR 07/M03 A3038 RMK AO1

More Conditions Fewer Conditions

10-Day Weather Forecast

Almanac

Astronomy

Mar. 05, 2015 Rise Set
Actual Time
Civil Twilight
Nautical Twilight
Astronomical Twilight
Moon
Length of Visible Light
Length of Day
Tomorrow will be .
, % of the Moon is Illuminated

Today's Extremes

State Highs State Lows

Community

WunderPhotos

Upload Photos

1,803,195 photos uploaded!

WunderBlogs® & News

Nearby

Air Quality

  Air Quality AQ Index Pollutant
Not available.

Snow Depth

Station Depth Elevation

Earthquake Activity

City Distance Mag. Time & Date
Minimum magnitude displayed is 2.5.

Coastal Water Temperatures

Place Temperature

Nearby Weather Stations